createdAt,value
2018-09-28T00:01:36.049Z,91.20
2018-09-28T00:04:04.655Z,91.50
2018-09-28T00:06:33.220Z,93.70
2018-09-28T00:09:01.811Z,92.90
2018-09-28T00:11:30.380Z,92.60
2018-09-28T00:13:58.972Z,92.50
2018-09-28T00:16:27.525Z,91.90
2018-09-28T00:18:56.116Z,92.10
2018-09-28T00:21:24.697Z,92.60
2018-09-28T00:23:53.284Z,92.30
2018-09-28T00:26:21.857Z,92.20
2018-09-28T00:28:50.448Z,92.40
2018-09-28T00:31:19.067Z,92.20
2018-09-28T00:33:47.653Z,91.60
2018-09-28T00:36:16.217Z,91.60
2018-09-28T00:38:44.830Z,92.80
2018-09-28T00:41:13.428Z,92.70
2018-09-28T00:43:42.026Z,93.40
2018-09-28T00:46:10.592Z,92.90
2018-09-28T00:48:39.190Z,91.60
2018-09-28T00:51:07.774Z,92.20
2018-09-28T00:53:36.346Z,92.80
2018-09-28T00:56:04.951Z,92.30
2018-09-28T00:58:33.529Z,92.80
2018-09-28T01:01:02.118Z,94.40
2018-09-28T01:03:30.676Z,92.90
2018-09-28T01:05:59.270Z,91.80
2018-09-28T01:08:28.127Z,92.10
2018-09-28T01:10:56.732Z,92.30
2018-09-28T01:13:25.318Z,92.60
2018-09-28T01:15:53.950Z,92.30
2018-09-28T01:18:22.517Z,92.00
2018-09-28T01:20:51.112Z,91.60
2018-09-28T01:23:19.757Z,91.40
2018-09-28T01:25:48.386Z,93.50
2018-09-28T01:28:16.976Z,94.70
2018-09-28T01:30:45.608Z,93.10
2018-09-28T01:33:14.171Z,93.30
2018-09-28T01:35:42.807Z,93.60
2018-09-28T01:38:11.397Z,92.50
2018-09-28T01:40:40.019Z,92.20
2018-09-28T01:43:08.637Z,93.30
2018-09-28T01:45:37.544Z,92.10
2018-09-28T01:48:06.323Z,93.20
2018-09-28T01:50:34.905Z,91.50
2018-09-28T01:53:03.505Z,92.50
2018-09-28T01:55:32.094Z,92.00
2018-09-28T01:58:00.895Z,92.40
2018-09-28T02:00:29.493Z,92.40
2018-09-28T02:02:58.058Z,94.10
2018-09-28T02:05:26.658Z,93.30
2018-09-28T02:07:55.232Z,94.00
2018-09-28T02:10:23.836Z,92.80
2018-09-28T02:12:52.704Z,92.60
2018-09-28T02:15:21.367Z,93.50
2018-09-28T02:17:49.970Z,94.10
2018-09-28T02:20:18.621Z,93.00
2018-09-28T02:22:47.505Z,93.60
2018-09-28T02:25:16.077Z,92.80
2018-09-28T02:27:44.676Z,93.40
2018-09-28T02:30:13.294Z,93.10
2018-09-28T02:32:41.875Z,92.60
2018-09-28T02:35:10.452Z,92.80
2018-09-28T02:37:39.185Z,93.30
2018-09-28T02:40:08.265Z,93.20
2018-09-28T02:42:36.843Z,94.20
2018-09-28T02:45:05.461Z,94.80
2018-09-28T02:47:34.075Z,92.90
2018-09-28T02:50:02.668Z,92.30
2018-09-28T02:52:31.268Z,92.10
2018-09-28T02:54:59.832Z,92.30
2018-09-28T02:57:28.418Z,92.20
2018-09-28T02:59:56.992Z,94.20
2018-09-28T03:02:25.582Z,92.10
2018-09-28T03:04:54.158Z,94.70
2018-09-28T03:07:22.740Z,93.70
2018-09-28T03:09:51.305Z,93.40
2018-09-28T03:12:19.917Z,94.00
2018-09-28T03:14:48.509Z,93.00
2018-09-28T03:17:17.127Z,93.20
2018-09-28T03:19:45.709Z,93.40
2018-09-28T03:22:14.713Z,94.30
2018-09-28T03:24:43.308Z,92.90
2018-09-28T03:27:11.915Z,93.20
2018-09-28T03:29:40.481Z,92.40
2018-09-28T03:32:09.281Z,94.10
2018-09-28T03:34:37.858Z,93.80
2018-09-28T03:37:06.469Z,94.80
2018-09-28T03:39:35.038Z,94.70
2018-09-28T03:42:03.670Z,93.10
2018-09-28T03:44:32.232Z,94.20
2018-09-28T03:47:01.176Z,93.60
2018-09-28T03:49:29.740Z,93.20
2018-09-28T03:51:59.213Z,94.50
2018-09-28T03:54:27.804Z,93.20
2018-09-28T03:56:56.416Z,93.10
2018-09-28T03:59:24.985Z,93.50
2018-09-28T04:01:53.584Z,94.40
2018-09-28T04:04:22.153Z,93.90
2018-09-28T04:06:50.724Z,94.80
2018-09-28T04:09:19.337Z,93.30
2018-09-28T04:11:47.920Z,94.00
2018-09-28T04:14:16.504Z,94.20
2018-09-28T04:16:45.637Z,94.90
2018-09-28T04:19:14.296Z,93.40
2018-09-28T04:21:47.377Z,94.10
2018-09-28T04:24:15.924Z,93.40
2018-09-28T04:26:45.096Z,92.80
2018-09-28T04:29:13.688Z,92.30
2018-09-28T04:31:42.260Z,93.30
2018-09-28T04:34:12.709Z,94.50
2018-09-28T04:36:41.351Z,95.90
2018-09-28T04:39:09.945Z,94.40
2018-09-28T04:41:38.536Z,93.50
2018-09-28T04:44:07.129Z,92.30
2018-09-28T04:46:35.692Z,93.60
2018-09-28T04:49:04.439Z,93.30
2018-09-28T04:51:33.029Z,94.90
2018-09-28T04:54:01.707Z,93.80
2018-09-28T04:56:30.749Z,94.30
2018-09-28T04:58:59.708Z,92.80
2018-09-28T05:01:28.272Z,93.40
2018-09-28T05:03:56.875Z,94.50
2018-09-28T05:06:25.478Z,94.00
2018-09-28T05:08:54.066Z,94.60
2018-09-28T05:11:22.637Z,94.10
2018-09-28T05:13:51.221Z,95.10
2018-09-28T05:16:19.802Z,93.20
2018-09-28T05:18:48.388Z,94.60
2018-09-28T05:21:16.957Z,93.00
2018-09-28T05:23:45.589Z,93.30
2018-09-28T05:26:14.186Z,94.70
2018-09-28T05:28:43.408Z,94.80
2018-09-28T05:31:12.031Z,94.70
2018-09-28T05:33:40.595Z,94.00
2018-09-28T05:36:09.158Z,95.20
2018-09-28T05:38:37.730Z,93.90
2018-09-28T05:41:06.861Z,94.40
2018-09-28T05:43:35.455Z,94.30
2018-09-28T05:46:04.134Z,93.80
2018-09-28T05:48:32.700Z,93.80
2018-09-28T05:51:01.297Z,95.80
2018-09-28T05:53:29.939Z,95.60
2018-09-28T05:55:58.529Z,94.70
2018-09-28T05:58:32.509Z,94.10
2018-09-28T06:01:06.395Z,95.60
2018-09-28T06:03:35.029Z,93.70
2018-09-28T06:06:04.413Z,92.80
2018-09-28T06:08:33.001Z,95.50
2018-09-28T06:11:01.593Z,93.80
2018-09-28T06:13:30.196Z,95.50
2018-09-28T06:15:58.797Z,95.00
2018-09-28T06:18:27.407Z,95.70
2018-09-28T06:20:56.050Z,94.90
2018-09-28T06:23:24.616Z,94.80
2018-09-28T06:25:53.270Z,95.80
2018-09-28T06:28:21.833Z,93.10
2018-09-28T06:30:50.424Z,95.00
2018-09-28T06:33:19.075Z,96.50
2018-09-28T06:35:47.772Z,96.70
2018-09-28T06:38:16.323Z,96.60
2018-09-28T06:40:45.124Z,98.50
2018-09-28T06:43:13.984Z,99.30
2018-09-28T06:45:45.868Z,97.60
2018-09-28T06:48:14.591Z,96.70
2018-09-28T06:50:43.805Z,95.40
2018-09-28T06:53:12.457Z,93.90
2018-09-28T06:55:41.076Z,93.20
2018-09-28T06:58:09.680Z,92.00
2018-09-28T07:00:38.292Z,90.80
2018-09-28T07:03:06.877Z,90.00
2018-09-28T07:05:35.471Z,88.90
2018-09-28T07:08:04.065Z,87.50
2018-09-28T07:10:32.686Z,85.90
2018-09-28T07:13:01.248Z,84.60
2018-09-28T07:15:29.858Z,82.70
2018-09-28T07:17:58.485Z,81.70
2018-09-28T07:20:27.202Z,81.20
2018-09-28T07:22:55.775Z,79.20
2018-09-28T07:25:24.377Z,77.70
2018-09-28T07:27:53.204Z,76.20
2018-09-28T07:30:21.804Z,76.70
2018-09-28T07:32:50.389Z,75.60
2018-09-28T07:35:18.959Z,74.30
2018-09-28T07:37:47.831Z,74.60
2018-09-28T07:40:16.541Z,69.10
2018-09-28T07:42:45.154Z,66.60
2018-09-28T07:45:14.075Z,65.70
2018-09-28T07:47:42.688Z,68.50
2018-09-28T07:50:12.025Z,64.50
2018-09-28T07:52:40.626Z,62.30
2018-09-28T07:55:09.913Z,63.40
2018-09-28T07:57:38.504Z,61.40
2018-09-28T08:00:07.163Z,63.10
2018-09-28T08:02:36.080Z,60.60
2018-09-28T08:05:04.809Z,59.00
2018-09-28T08:07:34.397Z,58.40
2018-09-28T08:10:02.999Z,56.80
2018-09-28T08:12:31.588Z,57.10
2018-09-28T08:15:00.149Z,57.40
2018-09-28T08:17:28.909Z,56.30
2018-09-28T08:19:57.548Z,56.80
2018-09-28T08:22:26.147Z,55.90
2018-09-28T08:24:54.712Z,53.90
2018-09-28T08:27:23.312Z,52.70
2018-09-28T08:29:51.953Z,52.50
2018-09-28T08:32:20.551Z,51.80
2018-09-28T08:34:49.123Z,52.40
2018-09-28T08:37:17.725Z,51.00
2018-09-28T08:39:46.314Z,48.30
2018-09-28T08:42:14.929Z,51.30
2018-09-28T08:44:43.511Z,48.30
2018-09-28T08:47:12.118Z,51.30
2018-09-28T08:49:40.709Z,47.40
2018-09-28T08:52:09.304Z,47.20
2018-09-28T08:54:38.317Z,50.40
2018-09-28T08:57:06.924Z,48.00
2018-09-28T08:59:35.497Z,46.40
2018-09-28T09:02:04.268Z,46.40
2018-09-28T09:04:33.157Z,47.40
2018-09-28T09:07:01.785Z,43.80
2018-09-28T09:09:30.361Z,47.20
2018-09-28T09:11:59.578Z,44.30
2018-09-28T09:14:28.152Z,43.00
2018-09-28T09:16:56.805Z,43.60
2018-09-28T09:19:25.870Z,44.50
2018-09-28T09:21:54.455Z,43.30
2018-09-28T09:24:23.041Z,43.00
2018-09-28T09:26:51.639Z,42.80
2018-09-28T09:29:20.232Z,42.00
2018-09-28T09:31:48.800Z,43.20
2018-09-28T09:34:17.405Z,40.80
2018-09-28T09:36:45.969Z,43.00
2018-09-28T09:39:14.565Z,40.90
2018-09-28T09:41:43.165Z,40.20
2018-09-28T09:44:12.338Z,40.20
2018-09-28T09:46:40.900Z,40.20
2018-09-28T09:49:09.486Z,40.50
2018-09-28T09:51:38.139Z,38.30
2018-09-28T09:54:06.805Z,38.90
2018-09-28T09:56:35.410Z,41.90
2018-09-28T09:59:04.049Z,39.00
2018-09-28T10:01:38.126Z,39.10
2018-09-28T10:04:07.776Z,37.90
2018-09-28T10:06:36.368Z,36.80
2018-09-28T10:09:12.860Z,37.40
2018-09-28T10:11:41.803Z,40.70
2018-09-28T10:14:10.737Z,39.90
2018-09-28T10:16:39.409Z,39.00
2018-09-28T10:19:08.424Z,39.70
2018-09-28T10:21:37.269Z,38.20
2018-09-28T10:24:05.892Z,35.70
2018-09-28T10:26:34.465Z,37.90
2018-09-28T10:29:03.128Z,41.00
2018-09-28T10:31:31.711Z,34.80
2018-09-28T10:34:00.312Z,34.70
2018-09-28T10:36:29.157Z,34.60
2018-09-28T10:38:58.154Z,34.30
2018-09-28T10:41:26.754Z,35.50
2018-09-28T10:43:55.366Z,36.80
2018-09-28T10:46:23.966Z,34.10
2018-09-28T10:48:52.732Z,34.70
2018-09-28T10:51:21.601Z,35.00
2018-09-28T10:53:50.275Z,33.40
2018-09-28T10:56:18.858Z,36.00
2018-09-28T10:58:47.528Z,33.50
2018-09-28T11:01:16.132Z,33.10
2018-09-28T11:03:44.767Z,33.80
2018-09-28T11:06:13.307Z,31.20
2018-09-28T11:08:41.931Z,35.30
2018-09-28T11:11:10.488Z,35.60
2018-09-28T11:13:39.181Z,35.90
2018-09-28T11:16:07.847Z,35.60
2018-09-28T11:18:36.590Z,35.30
2018-09-28T11:21:05.188Z,36.90
2018-09-28T11:23:33.772Z,37.20
2018-09-28T11:26:02.388Z,37.10
2018-09-28T11:28:30.978Z,38.00
2018-09-28T11:30:59.580Z,36.80
2018-09-28T11:33:28.282Z,37.40
2018-09-28T11:35:56.888Z,39.50
2018-09-28T11:38:25.453Z,39.40
2018-09-28T11:40:54.101Z,38.70
2018-09-28T11:43:23.125Z,39.00
2018-09-28T11:45:51.779Z,39.90
2018-09-28T11:48:20.421Z,38.80
2018-09-28T11:50:49.016Z,38.90
2018-09-28T11:53:17.669Z,39.50
2018-09-28T11:55:46.292Z,39.50
2018-09-28T11:58:14.886Z,41.00
2018-09-28T12:00:43.608Z,40.30
2018-09-28T12:03:12.292Z,41.20
2018-09-28T12:05:41.317Z,42.50
2018-09-28T12:08:09.912Z,42.00
2018-09-28T12:10:38.512Z,42.30
2018-09-28T12:13:07.113Z,42.40
2018-09-28T12:15:35.729Z,42.70
2018-09-28T12:18:04.316Z,43.50
2018-09-28T12:20:32.917Z,42.80
2018-09-28T12:23:01.518Z,43.60
2018-09-28T12:25:30.119Z,43.70
2018-09-28T12:27:58.709Z,43.90
2018-09-28T12:30:27.432Z,43.60
2018-09-28T12:32:55.943Z,44.40
2018-09-28T12:35:25.072Z,44.10
2018-09-28T12:37:53.653Z,44.30
2018-09-28T12:40:22.297Z,44.10
2018-09-28T12:42:50.923Z,44.30
2018-09-28T12:45:19.524Z,43.10
2018-09-28T12:47:48.128Z,43.90
2018-09-28T12:50:16.763Z,44.00
2018-09-28T12:52:45.717Z,44.00
2018-09-28T12:55:14.347Z,44.10
2018-09-28T12:57:42.944Z,44.70
2018-09-28T13:00:11.594Z,44.20
2018-09-28T13:02:41.252Z,44.90
2018-09-28T13:05:09.825Z,44.20
2018-09-28T13:07:38.637Z,44.80
2018-09-28T13:10:07.409Z,44.80
2018-09-28T13:12:36.072Z,44.90
2018-09-28T13:15:05.230Z,45.00
2018-09-28T13:17:33.744Z,44.70
2018-09-28T13:20:02.315Z,45.20
2018-09-28T13:22:30.949Z,45.00
2018-09-28T13:24:59.518Z,44.50
2018-09-28T13:27:28.123Z,42.90
2018-09-28T13:29:56.745Z,43.80
2018-09-28T13:32:25.401Z,43.50
2018-09-28T13:34:54.033Z,44.20
2018-09-28T13:37:22.640Z,44.00
2018-09-28T13:39:51.208Z,44.00
2018-09-28T13:42:19.874Z,43.40
2018-09-28T13:44:48.472Z,44.40
2018-09-28T13:47:17.097Z,43.70
2018-09-28T13:49:45.665Z,43.00
2018-09-28T13:52:14.291Z,43.80
2018-09-28T13:54:42.929Z,43.80
2018-09-28T13:57:11.611Z,42.90
2018-09-28T13:59:40.414Z,43.40
2018-09-28T14:02:09.094Z,44.10
2018-09-28T14:04:37.659Z,44.90
2018-09-28T14:07:06.538Z,44.90
2018-09-28T14:09:35.013Z,43.50
2018-09-28T14:12:03.636Z,43.60
2018-09-28T14:14:32.307Z,43.80
2018-09-28T14:17:01.031Z,44.40
2018-09-28T14:19:29.606Z,43.90
2018-09-28T14:21:58.195Z,44.20
2018-09-28T14:24:26.797Z,44.10
2018-09-28T14:26:55.425Z,43.20
2018-09-28T14:29:23.996Z,43.10
2018-09-28T14:31:52.596Z,43.00
2018-09-28T14:34:21.255Z,42.50
2018-09-28T14:36:49.836Z,42.80
2018-09-28T14:39:18.417Z,41.70
2018-09-28T14:41:47.508Z,40.60
2018-09-28T14:44:16.090Z,42.20
2018-09-28T14:46:44.799Z,41.80
2018-09-28T14:49:13.317Z,41.10
2018-09-28T14:51:41.939Z,41.50
2018-09-28T14:54:10.621Z,40.50
2018-09-28T14:56:39.220Z,40.50
2018-09-28T14:59:07.828Z,41.20
2018-09-28T15:01:36.405Z,41.50
2018-09-28T15:04:05.008Z,42.30
2018-09-28T15:06:33.579Z,41.10
2018-09-28T15:09:02.264Z,41.80
2018-09-28T15:11:30.855Z,42.60
2018-09-28T15:13:59.480Z,42.50
2018-09-28T15:16:28.111Z,42.30
2018-09-28T15:18:56.693Z,42.20
2018-09-28T15:21:25.273Z,42.10
2018-09-28T15:23:54.049Z,42.80
2018-09-28T15:26:22.581Z,44.00
2018-09-28T15:28:51.197Z,42.50
2018-09-28T15:31:19.765Z,42.50
2018-09-28T15:33:48.380Z,43.00
2018-09-28T15:36:16.969Z,42.80
2018-09-28T15:38:45.581Z,43.30
2018-09-28T15:41:14.193Z,42.60
2018-09-28T15:43:42.864Z,43.20
2018-09-28T15:46:11.452Z,43.30
2018-09-28T15:48:40.083Z,43.20
2018-09-28T15:51:08.685Z,43.40
2018-09-28T15:53:37.310Z,43.90
2018-09-28T15:56:05.912Z,43.70
2018-09-28T15:58:34.529Z,44.10
2018-09-28T16:01:03.117Z,44.50
2018-09-28T16:03:31.715Z,44.40
2018-09-28T16:06:00.317Z,44.70
2018-09-28T16:08:30.581Z,44.70
2018-09-28T16:10:59.439Z,44.50
2018-09-28T16:13:28.041Z,44.70
2018-09-28T16:15:56.628Z,44.70
2018-09-28T16:18:25.242Z,43.90
2018-09-28T16:20:53.825Z,45.00
2018-09-28T16:23:22.424Z,44.70
2018-09-28T16:25:51.033Z,44.60
2018-09-28T16:28:19.637Z,45.40
2018-09-28T16:30:48.225Z,44.40
2018-09-28T16:33:16.797Z,44.20
2018-09-28T16:35:45.484Z,43.60
2018-09-28T16:38:14.020Z,43.80
2018-09-28T16:40:42.941Z,42.60
2018-09-28T16:43:11.554Z,43.90
2018-09-28T16:45:40.152Z,44.00
2018-09-28T16:48:08.729Z,44.20
2018-09-28T16:50:37.505Z,43.50
2018-09-28T16:53:06.084Z,44.60
2018-09-28T16:55:34.801Z,44.80
2018-09-28T16:58:03.389Z,43.60
2018-09-28T17:00:31.989Z,43.60
2018-09-28T17:03:00.591Z,44.00
2018-09-28T17:05:29.201Z,45.20
2018-09-28T17:07:57.777Z,45.60
2018-09-28T17:10:26.828Z,44.80
2018-09-28T17:12:55.409Z,44.90
2018-09-28T17:15:24.012Z,45.20
2018-09-28T17:17:52.897Z,45.40
2018-09-28T17:20:21.588Z,45.00
2018-09-28T17:22:50.154Z,45.30
2018-09-28T17:25:18.802Z,46.30
2018-09-28T17:27:47.648Z,45.80
2018-09-28T17:30:18.064Z,47.90
2018-09-28T17:32:46.686Z,48.90
2018-09-28T17:35:15.884Z,50.70
2018-09-28T17:37:44.489Z,51.60
2018-09-28T17:40:13.141Z,52.30
2018-09-28T17:42:41.715Z,53.30
2018-09-28T17:45:10.353Z,54.40
2018-09-28T17:47:38.933Z,56.50
2018-09-28T17:50:07.601Z,59.30
2018-09-28T17:52:36.199Z,60.00
2018-09-28T17:55:04.940Z,60.90
2018-09-28T17:57:33.512Z,62.90
2018-09-28T18:00:02.146Z,63.50
2018-09-28T18:02:30.724Z,64.80
2018-09-28T18:04:59.333Z,64.30
2018-09-28T18:07:28.150Z,63.60
2018-09-28T18:09:56.818Z,64.80
2018-09-28T18:12:25.410Z,65.10
2018-09-28T18:14:54.030Z,62.90
2018-09-28T18:17:22.609Z,65.90
2018-09-28T18:19:51.249Z,65.30
2018-09-28T18:22:19.889Z,65.60
2018-09-28T18:24:48.485Z,65.60
2018-09-28T18:27:17.505Z,67.80
2018-09-28T18:29:47.538Z,67.90
2018-09-28T18:32:16.450Z,66.70
2018-09-28T18:34:45.080Z,67.70
2018-09-28T18:37:13.926Z,67.90
2018-09-28T18:39:42.580Z,69.30
2018-09-28T18:42:11.252Z,70.70
2018-09-28T18:44:39.886Z,67.50
2018-09-28T18:47:08.821Z,69.40
2018-09-28T18:49:39.253Z,71.20
2018-09-28T18:52:12.718Z,70.10
2018-09-28T18:54:41.993Z,70.20
2018-09-28T18:57:11.348Z,72.30
2018-09-28T18:59:39.978Z,73.00
2018-09-28T19:02:08.811Z,73.20
2018-09-28T19:04:38.020Z,75.00
2018-09-28T19:07:09.007Z,72.20
2018-09-28T19:09:37.617Z,70.10
2018-09-28T19:12:06.806Z,73.20
2018-09-28T19:14:36.433Z,73.90
2018-09-28T19:17:08.287Z,71.60
2018-09-28T19:19:37.241Z,74.50
2018-09-28T19:22:06.670Z,75.40
2018-09-28T19:24:35.511Z,75.00
2018-09-28T19:27:14.963Z,75.40
2018-09-28T19:29:44.681Z,76.40
2018-09-28T19:32:13.487Z,77.60
2018-09-28T19:34:42.078Z,77.30
2018-09-28T19:37:11.035Z,76.20
2018-09-28T19:39:39.621Z,76.00
2018-09-28T19:42:08.316Z,76.20
2018-09-28T19:44:36.917Z,75.20
2018-09-28T19:47:05.574Z,74.80
2018-09-28T19:49:34.181Z,76.40
2018-09-28T19:52:03.683Z,79.00
2018-09-28T19:54:33.350Z,80.50
2018-09-28T19:57:01.956Z,80.00
2018-09-28T19:59:30.535Z,80.70
2018-09-28T20:01:59.129Z,82.90
2018-09-28T20:04:27.717Z,84.70
2018-09-28T20:06:57.325Z,82.00
2018-09-28T20:09:25.913Z,85.10
2018-09-28T20:11:54.557Z,86.40
2018-09-28T20:14:23.144Z,86.40
2018-09-28T20:16:51.758Z,86.00
2018-09-28T20:19:20.421Z,85.20
2018-09-28T20:21:49.116Z,86.00
2018-09-28T20:24:17.671Z,85.80
2018-09-28T20:26:46.317Z,84.70
2018-09-28T20:29:14.909Z,83.70
2018-09-28T20:31:43.520Z,81.90
2018-09-28T20:34:12.214Z,85.30
2018-09-28T20:36:40.832Z,87.60
2018-09-28T20:39:12.511Z,84.60
2018-09-28T20:41:41.404Z,87.40
2018-09-28T20:44:10.084Z,85.20
2018-09-28T20:46:38.996Z,85.40
2018-09-28T20:49:08.249Z,88.90
2018-09-28T20:51:36.817Z,89.20
2018-09-28T20:54:05.428Z,86.50
2018-09-28T20:56:34.036Z,88.40
2018-09-28T20:59:02.702Z,88.90
2018-09-28T21:01:31.294Z,85.40
2018-09-28T21:03:59.915Z,87.60
2018-09-28T21:06:28.516Z,86.80
2018-09-28T21:08:57.151Z,87.30
2018-09-28T21:11:25.743Z,88.90
2018-09-28T21:13:54.332Z,86.10
2018-09-28T21:16:23.240Z,88.00
2018-09-28T21:18:51.841Z,85.10
2018-09-28T21:21:20.416Z,86.10
2018-09-28T21:23:49.019Z,87.80
2018-09-28T21:26:17.607Z,87.40
2018-09-28T21:28:46.270Z,88.30
2018-09-28T21:31:14.816Z,86.90
2018-09-28T21:33:43.425Z,87.90
2018-09-28T21:36:12.336Z,84.30
2018-09-28T21:38:40.941Z,88.00
2018-09-28T21:41:09.546Z,84.80
2018-09-28T21:43:38.164Z,85.80
2018-09-28T21:46:07.115Z,85.70
2018-09-28T21:48:35.721Z,85.60
2018-09-28T21:51:04.310Z,85.60
2018-09-28T21:53:32.934Z,87.90
2018-09-28T21:56:01.539Z,84.50
2018-09-28T21:58:30.136Z,84.00
2018-09-28T22:00:58.710Z,86.10
2018-09-28T22:03:27.600Z,85.20
2018-09-28T22:05:56.245Z,86.80
2018-09-28T22:08:24.845Z,85.80
2018-09-28T22:10:53.448Z,86.90
2018-09-28T22:13:22.156Z,84.50
2018-09-28T22:15:50.737Z,86.80
2018-09-28T22:18:19.351Z,87.70
2018-09-28T22:20:47.924Z,87.30
2018-09-28T22:23:16.528Z,86.50
2018-09-28T22:25:45.116Z,86.60
2018-09-28T22:28:13.726Z,84.10
2018-09-28T22:30:42.291Z,84.70
2018-09-28T22:33:10.903Z,85.30
2018-09-28T22:35:39.490Z,84.30
2018-09-28T22:38:08.090Z,84.70
2018-09-28T22:40:36.701Z,84.60
2018-09-28T22:43:05.313Z,84.80
2018-09-28T22:45:33.971Z,83.00
2018-09-28T22:48:02.685Z,83.30
2018-09-28T22:50:31.308Z,83.10
2018-09-28T22:52:59.897Z,83.30
2018-09-28T22:55:28.501Z,82.10
2018-09-28T22:57:57.071Z,83.10
2018-09-28T23:00:25.661Z,82.80
2018-09-28T23:02:54.241Z,82.10
2018-09-28T23:05:22.846Z,82.00
2018-09-28T23:07:51.444Z,81.60
2018-09-28T23:10:20.064Z,80.90
2018-09-28T23:12:48.677Z,81.30
2018-09-28T23:15:17.281Z,81.10
2018-09-28T23:17:45.848Z,80.90
2018-09-28T23:20:14.486Z,80.10
2018-09-28T23:22:43.081Z,80.50
2018-09-28T23:25:11.686Z,80.40
2018-09-28T23:27:40.257Z,80.30
2018-09-28T23:30:08.936Z,79.80
2018-09-28T23:32:37.512Z,79.50
2018-09-28T23:35:06.169Z,78.90
2018-09-28T23:37:34.736Z,79.40
2018-09-28T23:40:03.388Z,79.80
2018-09-28T23:42:32.005Z,79.30
2018-09-28T23:45:00.606Z,79.00
2018-09-28T23:47:29.224Z,78.40
2018-09-28T23:49:57.809Z,78.70
2018-09-28T23:52:26.406Z,77.90
2018-09-28T23:54:55.053Z,77.90
2018-09-28T23:57:23.629Z,77.90
2018-09-28T23:59:52.229Z,77.70
